sensor_id;sensor_type;location;lat;lon;timestamp;P1;durP1;ratioP1;P2;durP2;ratioP2
72109;SDS011;59983;52.010;5.420;2022-11-06T00:02:15;10.32;;;9.63;;
72109;SDS011;59983;52.010;5.420;2022-11-06T00:04:47;13.07;;;8.63;;
72109;SDS011;59983;52.010;5.420;2022-11-06T00:07:13;10.40;;;8.80;;
72109;SDS011;59983;52.010;5.420;2022-11-06T00:09:40;9.23;;;8.32;;
72109;SDS011;59983;52.010;5.420;2022-11-06T00:12:06;13.00;;;9.80;;
72109;SDS011;59983;52.010;5.420;2022-11-06T00:14:33;11.00;;;9.93;;
72109;SDS011;59983;52.010;5.420;2022-11-06T00:17:00;10.52;;;9.45;;
72109;SDS011;59983;52.010;5.420;2022-11-06T00:19:26;9.50;;;8.73;;
72109;SDS011;59983;52.010;5.420;2022-11-06T00:21:53;9.80;;;9.00;;
72109;SDS011;59983;52.010;5.420;2022-11-06T00:24:19;9.32;;;8.43;;
72109;SDS011;59983;52.010;5.420;2022-11-06T00:26:45;8.02;;;7.40;;
72109;SDS011;59983;52.010;5.420;2022-11-06T00:29:19;11.68;;;8.90;;
72109;SDS011;59983;52.010;5.420;2022-11-06T00:31:48;14.57;;;9.37;;
72109;SDS011;59983;52.010;5.420;2022-11-06T00:34:14;9.18;;;8.32;;
72109;SDS011;59983;52.010;5.420;2022-11-06T00:36:41;11.80;;;9.85;;
72109;SDS011;59983;52.010;5.420;2022-11-06T00:39:07;10.82;;;9.45;;
72109;SDS011;59983;52.010;5.420;2022-11-06T00:41:34;11.27;;;8.27;;
72109;SDS011;59983;52.010;5.420;2022-11-06T00:44:01;9.83;;;9.00;;
72109;SDS011;59983;52.010;5.420;2022-11-06T00:46:28;12.88;;;8.88;;
72109;SDS011;59983;52.010;5.420;2022-11-06T00:48:55;10.38;;;9.40;;
72109;SDS011;59983;52.010;5.420;2022-11-06T00:51:40;11.57;;;8.80;;
72109;SDS011;59983;52.010;5.420;2022-11-06T00:54:07;12.52;;;8.50;;
72109;SDS011;59983;52.010;5.420;2022-11-06T00:56:36;10.90;;;8.80;;
72109;SDS011;59983;52.010;5.420;2022-11-06T00:59:03;10.27;;;8.35;;
72109;SDS011;59983;52.010;5.420;2022-11-06T01:01:34;28.52;;;9.23;;
72109;SDS011;59983;52.010;5.420;2022-11-06T01:06:36;9.27;;;8.23;;
72109;SDS011;59983;52.010;5.420;2022-11-06T01:09:05;12.30;;;9.57;;
72109;SDS011;59983;52.010;5.420;2022-11-06T01:11:37;8.93;;;8.15;;
72109;SDS011;59983;52.010;5.420;2022-11-06T01:14:25;9.02;;;8.25;;
72109;SDS011;59983;52.010;5.420;2022-11-06T01:16:52;10.30;;;7.95;;
72109;SDS011;59983;52.010;5.420;2022-11-06T01:19:19;8.27;;;7.55;;
72109;SDS011;59983;52.010;5.420;2022-11-06T01:21:48;12.47;;;8.83;;
72109;SDS011;59983;52.010;5.420;2022-11-06T01:24:19;9.52;;;8.73;;
72109;SDS011;59983;52.010;5.420;2022-11-06T01:26:47;8.10;;;7.43;;
72109;SDS011;59983;52.010;5.420;2022-11-06T01:29:34;13.98;;;9.07;;
72109;SDS011;59983;52.010;5.420;2022-11-06T01:32:01;8.57;;;7.80;;
72109;SDS011;59983;52.010;5.420;2022-11-06T01:34:28;10.27;;;8.33;;
72109;SDS011;59983;52.010;5.420;2022-11-06T01:36:55;8.75;;;7.45;;
72109;SDS011;59983;52.010;5.420;2022-11-06T01:39:21;8.98;;;7.65;;
72109;SDS011;59983;52.010;5.420;2022-11-06T01:41:48;12.75;;;8.05;;
72109;SDS011;59983;52.010;5.420;2022-11-06T01:46:58;8.67;;;6.87;;
72109;SDS011;59983;52.010;5.420;2022-11-06T01:49:27;11.00;;;9.00;;
72109;SDS011;59983;52.010;5.420;2022-11-06T01:51:56;16.35;;;10.25;;
72109;SDS011;59983;52.010;5.420;2022-11-06T01:54:26;7.97;;;7.28;;
72109;SDS011;59983;52.010;5.420;2022-11-06T01:56:56;9.82;;;8.40;;
72109;SDS011;59983;52.010;5.420;2022-11-06T01:59:25;8.17;;;7.37;;
72109;SDS011;59983;52.010;5.420;2022-11-06T02:01:54;9.68;;;7.70;;
72109;SDS011;59983;52.010;5.420;2022-11-06T02:04:28;7.82;;;7.28;;
72109;SDS011;59983;52.010;5.420;2022-11-06T02:06:59;11.88;;;7.22;;
72109;SDS011;59983;52.010;5.420;2022-11-06T02:09:26;9.65;;;7.55;;
72109;SDS011;59983;52.010;5.420;2022-11-06T02:11:59;9.23;;;8.33;;
72109;SDS011;59983;52.010;5.420;2022-11-06T02:20:58;7.13;;;6.47;;
72109;SDS011;59983;52.010;5.420;2022-11-06T02:29:14;11.05;;;8.43;;
72109;SDS011;59983;52.010;5.420;2022-11-06T02:31:46;6.90;;;6.50;;
72109;SDS011;59983;52.010;5.420;2022-11-06T02:34:17;7.53;;;6.75;;
72109;SDS011;59983;52.010;5.420;2022-11-06T02:36:51;11.05;;;6.97;;
72109;SDS011;59983;52.010;5.420;2022-11-06T02:39:24;13.70;;;7.67;;
72109;SDS011;59983;52.010;5.420;2022-11-06T02:41:54;9.05;;;6.53;;
72109;SDS011;59983;52.010;5.420;2022-11-06T02:44:25;12.15;;;6.88;;
72109;SDS011;59983;52.010;5.420;2022-11-06T02:46:55;11.65;;;7.18;;
72109;SDS011;59983;52.010;5.420;2022-11-06T02:49:35;8.18;;;7.05;;
72109;SDS011;59983;52.010;5.420;2022-11-06T02:52:10;7.27;;;6.57;;
72109;SDS011;59983;52.010;5.420;2022-11-06T02:54:43;7.65;;;6.75;;
72109;SDS011;59983;52.010;5.420;2022-11-06T02:57:15;7.82;;;7.03;;
72109;SDS011;59983;52.010;5.420;2022-11-06T02:59:53;7.45;;;6.82;;
72109;SDS011;59983;52.010;5.420;2022-11-06T03:02:29;7.10;;;6.38;;
72109;SDS011;59983;52.010;5.420;2022-11-06T03:05:18;10.37;;;7.07;;
72109;SDS011;59983;52.010;5.420;2022-11-06T03:07:51;7.72;;;6.22;;
72109;SDS011;59983;52.010;5.420;2022-11-06T03:10:33;7.47;;;6.57;;
72109;SDS011;59983;52.010;5.420;2022-11-06T03:13:21;6.90;;;6.28;;
72109;SDS011;59983;52.010;5.420;2022-11-06T03:16:02;6.97;;;6.20;;
72109;SDS011;59983;52.010;5.420;2022-11-06T03:18:40;7.17;;;6.43;;
72109;SDS011;59983;52.010;5.420;2022-11-06T03:21:31;10.50;;;6.38;;
72109;SDS011;59983;52.010;5.420;2022-11-06T03:24:07;9.65;;;7.07;;
72109;SDS011;59983;52.010;5.420;2022-11-06T03:26:42;6.90;;;6.40;;
72109;SDS011;59983;52.010;5.420;2022-11-06T03:31:55;7.07;;;6.47;;
72109;SDS011;59983;52.010;5.420;2022-11-06T03:34:31;10.48;;;6.38;;
72109;SDS011;59983;52.010;5.420;2022-11-06T03:37:14;6.50;;;5.93;;
72109;SDS011;59983;52.010;5.420;2022-11-06T03:39:49;10.25;;;6.28;;
72109;SDS011;59983;52.010;5.420;2022-11-06T03:42:23;6.53;;;6.03;;
72109;SDS011;59983;52.010;5.420;2022-11-06T03:44:57;6.47;;;5.83;;
72109;SDS011;59983;52.010;5.420;2022-11-06T03:47:29;9.88;;;6.28;;
72109;SDS011;59983;52.010;5.420;2022-11-06T03:50:35;5.50;;;5.10;;
72109;SDS011;59983;52.010;5.420;2022-11-06T03:53:03;7.95;;;7.15;;
72109;SDS011;59983;52.010;5.420;2022-11-06T03:55:40;6.43;;;6.03;;
72109;SDS011;59983;52.010;5.420;2022-11-06T03:58:22;6.13;;;5.53;;
72109;SDS011;59983;52.010;5.420;2022-11-06T04:00:52;12.95;;;5.78;;
72109;SDS011;59983;52.010;5.420;2022-11-06T04:05:55;6.07;;;5.68;;
72109;SDS011;59983;52.010;5.420;2022-11-06T04:08:31;8.18;;;6.15;;
72109;SDS011;59983;52.010;5.420;2022-11-06T04:11:18;10.37;;;6.67;;
72109;SDS011;59983;52.010;5.420;2022-11-06T04:14:07;7.00;;;5.93;;
72109;SDS011;59983;52.010;5.420;2022-11-06T04:16:38;6.38;;;5.70;;
72109;SDS011;59983;52.010;5.420;2022-11-06T04:19:12;6.93;;;6.05;;
72109;SDS011;59983;52.010;5.420;2022-11-06T04:24:30;7.40;;;6.20;;
72109;SDS011;59983;52.010;5.420;2022-11-06T04:30:25;6.85;;;6.20;;
72109;SDS011;59983;52.010;5.420;2022-11-06T04:33:04;6.45;;;5.75;;
72109;SDS011;59983;52.010;5.420;2022-11-06T04:39:10;7.67;;;6.43;;
72109;SDS011;59983;52.010;5.420;2022-11-06T04:44:34;8.75;;;6.10;;
72109;SDS011;59983;52.010;5.420;2022-11-06T04:47:05;11.70;;;6.05;;
72109;SDS011;59983;52.010;5.420;2022-11-06T04:49:36;12.52;;;7.55;;
72109;SDS011;59983;52.010;5.420;2022-11-06T04:52:05;6.97;;;6.33;;
72109;SDS011;59983;52.010;5.420;2022-11-06T04:54:34;7.25;;;5.63;;
72109;SDS011;59983;52.010;5.420;2022-11-06T04:57:01;7.07;;;6.32;;
72109;SDS011;59983;52.010;5.420;2022-11-06T04:59:29;9.43;;;6.30;;
72109;SDS011;59983;52.010;5.420;2022-11-06T05:01:59;7.97;;;6.35;;
72109;SDS011;59983;52.010;5.420;2022-11-06T05:04:26;6.17;;;5.77;;
72109;SDS011;59983;52.010;5.420;2022-11-06T05:06:52;6.95;;;6.13;;
72109;SDS011;59983;52.010;5.420;2022-11-06T05:09:19;6.07;;;5.53;;
72109;SDS011;59983;52.010;5.420;2022-11-06T05:11:45;6.72;;;5.90;;
72109;SDS011;59983;52.010;5.420;2022-11-06T05:14:12;9.00;;;6.22;;
72109;SDS011;59983;52.010;5.420;2022-11-06T05:16:38;6.47;;;5.97;;
72109;SDS011;59983;52.010;5.420;2022-11-06T05:19:05;6.38;;;5.80;;
72109;SDS011;59983;52.010;5.420;2022-11-06T05:21:31;6.65;;;6.07;;
72109;SDS011;59983;52.010;5.420;2022-11-06T05:24:16;7.82;;;6.45;;
72109;SDS011;59983;52.010;5.420;2022-11-06T05:26:43;6.30;;;5.82;;
72109;SDS011;59983;52.010;5.420;2022-11-06T05:29:10;6.97;;;6.10;;
72109;SDS011;59983;52.010;5.420;2022-11-06T05:31:37;6.53;;;5.93;;
72109;SDS011;59983;52.010;5.420;2022-11-06T05:34:04;6.60;;;6.10;;
72109;SDS011;59983;52.010;5.420;2022-11-06T05:36:32;6.13;;;5.72;;
72109;SDS011;59983;52.010;5.420;2022-11-06T05:38:58;6.68;;;6.05;;
72109;SDS011;59983;52.010;5.420;2022-11-06T05:41:25;10.93;;;6.17;;
72109;SDS011;59983;52.010;5.420;2022-11-06T05:43:51;11.57;;;6.95;;
72109;SDS011;59983;52.010;5.420;2022-11-06T05:46:18;8.63;;;6.57;;
72109;SDS011;59983;52.010;5.420;2022-11-06T05:49:04;7.15;;;6.43;;
72109;SDS011;59983;52.010;5.420;2022-11-06T05:51:31;11.93;;;6.18;;
72109;SDS011;59983;52.010;5.420;2022-11-06T05:53:57;6.80;;;6.23;;
72109;SDS011;59983;52.010;5.420;2022-11-06T05:56:24;6.90;;;6.03;;
72109;SDS011;59983;52.010;5.420;2022-11-06T05:58:50;6.65;;;6.15;;
72109;SDS011;59983;52.010;5.420;2022-11-06T06:01:17;8.80;;;6.18;;
72109;SDS011;59983;52.010;5.420;2022-11-06T06:03:43;6.72;;;6.13;;
72109;SDS011;59983;52.010;5.420;2022-11-06T06:06:10;10.87;;;6.27;;
72109;SDS011;59983;52.010;5.420;2022-11-06T06:08:36;8.75;;;6.38;;
72109;SDS011;59983;52.010;5.420;2022-11-06T06:11:06;7.25;;;6.03;;
72109;SDS011;59983;52.010;5.420;2022-11-06T06:13:36;9.50;;;7.20;;
72109;SDS011;59983;52.010;5.420;2022-11-06T06:16:03;12.13;;;6.80;;
72109;SDS011;59983;52.010;5.420;2022-11-06T06:18:30;8.13;;;6.50;;
72109;SDS011;59983;52.010;5.420;2022-11-06T06:20:56;13.15;;;6.63;;
72109;SDS011;59983;52.010;5.420;2022-11-06T06:23:24;9.27;;;6.13;;
72109;SDS011;59983;52.010;5.420;2022-11-06T06:25:50;6.68;;;6.18;;
72109;SDS011;59983;52.010;5.420;2022-11-06T06:28:17;7.45;;;6.30;;
72109;SDS011;59983;52.010;5.420;2022-11-06T06:30:43;9.50;;;6.07;;
72109;SDS011;59983;52.010;5.420;2022-11-06T06:33:10;7.00;;;6.38;;
72109;SDS011;59983;52.010;5.420;2022-11-06T06:35:36;6.68;;;6.22;;
72109;SDS011;59983;52.010;5.420;2022-11-06T06:38:03;7.18;;;6.50;;
72109;SDS011;59983;52.010;5.420;2022-11-06T06:40:29;12.60;;;6.18;;
72109;SDS011;59983;52.010;5.420;2022-11-06T06:42:56;6.83;;;6.20;;
72109;SDS011;59983;52.010;5.420;2022-11-06T06:45:24;6.57;;;5.75;;
72109;SDS011;59983;52.010;5.420;2022-11-06T06:47:51;7.72;;;6.00;;
72109;SDS011;59983;52.010;5.420;2022-11-06T06:50:18;7.40;;;6.20;;
72109;SDS011;59983;52.010;5.420;2022-11-06T06:52:44;6.35;;;5.60;;
72109;SDS011;59983;52.010;5.420;2022-11-06T06:55:11;6.70;;;6.20;;
72109;SDS011;59983;52.010;5.420;2022-11-06T06:57:37;6.57;;;6.03;;
72109;SDS011;59983;52.010;5.420;2022-11-06T07:00:04;6.50;;;5.70;;
72109;SDS011;59983;52.010;5.420;2022-11-06T07:02:30;12.27;;;6.25;;
72109;SDS011;59983;52.010;5.420;2022-11-06T07:04:57;6.85;;;6.22;;
72109;SDS011;59983;52.010;5.420;2022-11-06T07:07:23;7.53;;;6.80;;
72109;SDS011;59983;52.010;5.420;2022-11-06T07:09:50;6.20;;;5.90;;
72109;SDS011;59983;52.010;5.420;2022-11-06T07:12:17;6.38;;;5.70;;
72109;SDS011;59983;52.010;5.420;2022-11-06T07:14:43;8.70;;;5.30;;
72109;SDS011;59983;52.010;5.420;2022-11-06T07:17:10;6.32;;;5.70;;
72109;SDS011;59983;52.010;5.420;2022-11-06T07:19:36;8.10;;;6.30;;
72109;SDS011;59983;52.010;5.420;2022-11-06T07:22:03;7.07;;;5.95;;
72109;SDS011;59983;52.010;5.420;2022-11-06T07:24:29;5.78;;;5.30;;
72109;SDS011;59983;52.010;5.420;2022-11-06T07:26:56;9.07;;;6.45;;
72109;SDS011;59983;52.010;5.420;2022-11-06T07:29:22;6.55;;;5.65;;
72109;SDS011;59983;52.010;5.420;2022-11-06T07:31:49;8.53;;;6.10;;
72109;SDS011;59983;52.010;5.420;2022-11-06T07:34:15;6.50;;;5.93;;
72109;SDS011;59983;52.010;5.420;2022-11-06T07:36:41;5.45;;;5.05;;
72109;SDS011;59983;52.010;5.420;2022-11-06T07:39:08;5.75;;;5.18;;
72109;SDS011;59983;52.010;5.420;2022-11-06T07:41:34;6.85;;;5.45;;
72109;SDS011;59983;52.010;5.420;2022-11-06T07:44:01;6.13;;;5.63;;
72109;SDS011;59983;52.010;5.420;2022-11-06T07:46:27;8.10;;;6.28;;
72109;SDS011;59983;52.010;5.420;2022-11-06T07:48:54;5.50;;;5.10;;
72109;SDS011;59983;52.010;5.420;2022-11-06T07:51:20;8.00;;;5.20;;
72109;SDS011;59983;52.010;5.420;2022-11-06T07:53:47;9.75;;;6.53;;
72109;SDS011;59983;52.010;5.420;2022-11-06T07:56:13;8.27;;;5.90;;
72109;SDS011;59983;52.010;5.420;2022-11-06T07:58:40;6.00;;;5.53;;
72109;SDS011;59983;52.010;5.420;2022-11-06T08:01:10;6.85;;;6.15;;
72109;SDS011;59983;52.010;5.420;2022-11-06T08:03:43;6.65;;;6.15;;
72109;SDS011;59983;52.010;5.420;2022-11-06T08:06:10;6.57;;;5.97;;
72109;SDS011;59983;52.010;5.420;2022-11-06T08:08:37;8.77;;;6.43;;
72109;SDS011;59983;52.010;5.420;2022-11-06T08:11:04;8.85;;;5.55;;
72109;SDS011;59983;52.010;5.420;2022-11-06T08:13:32;8.00;;;5.72;;
72109;SDS011;59983;52.010;5.420;2022-11-06T08:16:05;6.22;;;5.63;;
72109;SDS011;59983;52.010;5.420;2022-11-06T08:18:34;5.97;;;5.45;;
72109;SDS011;59983;52.010;5.420;2022-11-06T08:21:00;8.60;;;6.20;;
72109;SDS011;59983;52.010;5.420;2022-11-06T08:23:27;6.15;;;5.03;;
72109;SDS011;59983;52.010;5.420;2022-11-06T08:25:54;6.43;;;5.60;;
72109;SDS011;59983;52.010;5.420;2022-11-06T08:28:23;5.78;;;5.15;;
72109;SDS011;59983;52.010;5.420;2022-11-06T08:30:50;6.28;;;5.28;;
72109;SDS011;59983;52.010;5.420;2022-11-06T08:33:17;5.97;;;5.37;;
72109;SDS011;59983;52.010;5.420;2022-11-06T08:35:44;5.32;;;4.88;;
72109;SDS011;59983;52.010;5.420;2022-11-06T08:38:11;10.02;;;5.10;;
72109;SDS011;59983;52.010;5.420;2022-11-06T08:40:38;6.18;;;5.07;;
72109;SDS011;59983;52.010;5.420;2022-11-06T08:43:06;5.30;;;4.78;;
72109;SDS011;59983;52.010;5.420;2022-11-06T08:45:35;5.87;;;5.13;;
72109;SDS011;59983;52.010;5.420;2022-11-06T08:48:06;8.50;;;5.28;;
72109;SDS011;59983;52.010;5.420;2022-11-06T08:50:34;9.43;;;4.95;;
72109;SDS011;59983;52.010;5.420;2022-11-06T08:53:02;5.32;;;4.13;;
72109;SDS011;59983;52.010;5.420;2022-11-06T08:55:29;4.38;;;3.97;;
72109;SDS011;59983;52.010;5.420;2022-11-06T08:57:56;5.23;;;4.57;;
72109;SDS011;59983;52.010;5.420;2022-11-06T09:00:23;5.22;;;4.45;;
72109;SDS011;59983;52.010;5.420;2022-11-06T09:02:49;7.53;;;4.72;;
72109;SDS011;59983;52.010;5.420;2022-11-06T09:05:16;4.90;;;4.22;;
72109;SDS011;59983;52.010;5.420;2022-11-06T09:07:42;5.30;;;4.18;;
72109;SDS011;59983;52.010;5.420;2022-11-06T09:10:09;9.30;;;4.80;;
72109;SDS011;59983;52.010;5.420;2022-11-06T09:12:35;6.85;;;4.20;;
72109;SDS011;59983;52.010;5.420;2022-11-06T09:15:02;5.57;;;4.18;;
72109;SDS011;59983;52.010;5.420;2022-11-06T09:17:29;8.00;;;4.88;;
72109;SDS011;59983;52.010;5.420;2022-11-06T09:19:55;5.47;;;5.00;;
72109;SDS011;59983;52.010;5.420;2022-11-06T09:22:21;4.87;;;4.47;;
72109;SDS011;59983;52.010;5.420;2022-11-06T09:24:48;8.32;;;4.40;;
72109;SDS011;59983;52.010;5.420;2022-11-06T09:27:29;4.95;;;4.45;;
72109;SDS011;59983;52.010;5.420;2022-11-06T09:29:56;5.90;;;4.25;;
72109;SDS011;59983;52.010;5.420;2022-11-06T09:32:23;5.60;;;4.50;;
72109;SDS011;59983;52.010;5.420;2022-11-06T09:34:50;5.13;;;4.00;;
72109;SDS011;59983;52.010;5.420;2022-11-06T09:37:16;6.63;;;4.18;;
72109;SDS011;59983;52.010;5.420;2022-11-06T09:39:43;6.93;;;4.35;;
72109;SDS011;59983;52.010;5.420;2022-11-06T09:42:34;6.40;;;4.18;;
72109;SDS011;59983;52.010;5.420;2022-11-06T09:45:29;5.07;;;3.78;;
72109;SDS011;59983;52.010;5.420;2022-11-06T09:50:37;4.75;;;4.03;;
72109;SDS011;59983;52.010;5.420;2022-11-06T09:53:12;6.15;;;4.05;;
72109;SDS011;59983;52.010;5.420;2022-11-06T09:55:45;6.50;;;4.55;;
72109;SDS011;59983;52.010;5.420;2022-11-06T09:58:15;4.30;;;4.10;;
72109;SDS011;59983;52.010;5.420;2022-11-06T10:00:45;4.70;;;4.30;;
72109;SDS011;59983;52.010;5.420;2022-11-06T10:03:15;4.88;;;4.55;;
72109;SDS011;59983;52.010;5.420;2022-11-06T10:05:47;4.70;;;4.30;;
72109;SDS011;59983;52.010;5.420;2022-11-06T10:08:19;4.80;;;4.22;;
72109;SDS011;59983;52.010;5.420;2022-11-06T10:10:55;5.88;;;4.43;;
72109;SDS011;59983;52.010;5.420;2022-11-06T10:13:32;9.40;;;5.00;;
72109;SDS011;59983;52.010;5.420;2022-11-06T10:19:09;3.97;;;3.72;;
72109;SDS011;59983;52.010;5.420;2022-11-06T10:26:49;4.37;;;4.00;;
72109;SDS011;59983;52.010;5.420;2022-11-06T10:34:47;5.28;;;4.90;;
72109;SDS011;59983;52.010;5.420;2022-11-06T10:37:21;6.72;;;4.57;;
72109;SDS011;59983;52.010;5.420;2022-11-06T10:39:51;5.60;;;4.80;;
72109;SDS011;59983;52.010;5.420;2022-11-06T10:42:19;8.00;;;5.40;;
72109;SDS011;59983;52.010;5.420;2022-11-06T10:47:19;6.25;;;5.28;;
72109;SDS011;59983;52.010;5.420;2022-11-06T10:49:51;8.35;;;5.38;;
72109;SDS011;59983;52.010;5.420;2022-11-06T10:55:01;6.22;;;5.53;;
72109;SDS011;59983;52.010;5.420;2022-11-06T10:57:45;5.30;;;4.90;;
72109;SDS011;59983;52.010;5.420;2022-11-06T11:00:13;8.23;;;4.95;;
72109;SDS011;59983;52.010;5.420;2022-11-06T11:02:45;7.32;;;5.10;;
72109;SDS011;59983;52.010;5.420;2022-11-06T11:05:15;5.93;;;4.60;;
72109;SDS011;59983;52.010;5.420;2022-11-06T11:07:44;9.15;;;4.88;;
72109;SDS011;59983;52.010;5.420;2022-11-06T11:10:31;6.90;;;5.10;;
72109;SDS011;59983;52.010;5.420;2022-11-06T11:13:00;4.90;;;4.57;;
72109;SDS011;59983;52.010;5.420;2022-11-06T11:15:43;4.70;;;4.25;;
72109;SDS011;59983;52.010;5.420;2022-11-06T11:20:39;5.43;;;4.97;;
72109;SDS011;59983;52.010;5.420;2022-11-06T11:23:23;5.25;;;3.88;;
72109;SDS011;59983;52.010;5.420;2022-11-06T11:25:51;10.07;;;5.10;;
72109;SDS011;59983;52.010;5.420;2022-11-06T11:30:50;5.00;;;4.50;;
72109;SDS011;59983;52.010;5.420;2022-11-06T11:33:37;4.72;;;4.32;;
72109;SDS011;59983;52.010;5.420;2022-11-06T11:36:06;11.48;;;4.38;;
72109;SDS011;59983;52.010;5.420;2022-11-06T11:38:34;6.28;;;4.30;;
72109;SDS011;59983;52.010;5.420;2022-11-06T11:43:57;5.10;;;4.10;;
72109;SDS011;59983;52.010;5.420;2022-11-06T11:46:30;4.30;;;3.88;;
72109;SDS011;59983;52.010;5.420;2022-11-06T11:48:58;7.43;;;5.07;;
72109;SDS011;59983;52.010;5.420;2022-11-06T11:51:34;4.72;;;4.32;;
72109;SDS011;59983;52.010;5.420;2022-11-06T11:54:04;4.10;;;3.90;;
72109;SDS011;59983;52.010;5.420;2022-11-06T11:56:45;5.60;;;4.20;;
72109;SDS011;59983;52.010;5.420;2022-11-06T12:02:13;4.88;;;4.10;;
72109;SDS011;59983;52.010;5.420;2022-11-06T12:04:53;4.97;;;4.47;;
72109;SDS011;59983;52.010;5.420;2022-11-06T12:09:58;4.43;;;4.03;;
72109;SDS011;59983;52.010;5.420;2022-11-06T12:12:29;7.97;;;3.88;;
72109;SDS011;59983;52.010;5.420;2022-11-06T12:17:41;5.05;;;3.90;;
72109;SDS011;59983;52.010;5.420;2022-11-06T12:20:10;7.75;;;4.03;;
72109;SDS011;59983;52.010;5.420;2022-11-06T12:22:47;4.40;;;4.03;;
72109;SDS011;59983;52.010;5.420;2022-11-06T12:25:24;6.55;;;4.03;;
72109;SDS011;59983;52.010;5.420;2022-11-06T12:27:59;4.78;;;3.85;;
72109;SDS011;59983;52.010;5.420;2022-11-06T12:30:27;3.95;;;3.75;;
72109;SDS011;59983;52.010;5.420;2022-11-06T12:35:31;4.00;;;3.73;;
72109;SDS011;59983;52.010;5.420;2022-11-06T12:38:18;4.05;;;3.78;;
72109;SDS011;59983;52.010;5.420;2022-11-06T12:41:09;5.30;;;3.80;;
72109;SDS011;59983;52.010;5.420;2022-11-06T12:43:42;7.45;;;4.35;;
72109;SDS011;59983;52.010;5.420;2022-11-06T12:54:21;5.05;;;4.50;;
72109;SDS011;59983;52.010;5.420;2022-11-06T13:02:23;4.23;;;4.00;;
72109;SDS011;59983;52.010;5.420;2022-11-06T13:05:33;10.57;;;4.55;;
72109;SDS011;59983;52.010;5.420;2022-11-06T13:13:51;11.80;;;6.28;;
72109;SDS011;59983;52.010;5.420;2022-11-06T13:24:19;4.55;;;4.13;;
72109;SDS011;59983;52.010;5.420;2022-11-06T13:27:09;4.20;;;3.88;;
72109;SDS011;59983;52.010;5.420;2022-11-06T13:29:40;7.57;;;5.10;;
72109;SDS011;59983;52.010;5.420;2022-11-06T13:32:15;5.40;;;4.90;;
72109;SDS011;59983;52.010;5.420;2022-11-06T13:34:46;8.48;;;4.70;;
72109;SDS011;59983;52.010;5.420;2022-11-06T13:37:17;4.38;;;4.15;;
72109;SDS011;59983;52.010;5.420;2022-11-06T13:39:51;9.23;;;4.80;;
72109;SDS011;59983;52.010;5.420;2022-11-06T13:42:42;4.80;;;4.50;;
72109;SDS011;59983;52.010;5.420;2022-11-06T13:45:15;5.10;;;4.70;;
72109;SDS011;59983;52.010;5.420;2022-11-06T13:50:24;5.05;;;4.75;;
72109;SDS011;59983;52.010;5.420;2022-11-06T13:52:59;5.30;;;4.80;;
72109;SDS011;59983;52.010;5.420;2022-11-06T14:06:45;9.25;;;5.65;;
72109;SDS011;59983;52.010;5.420;2022-11-06T14:09:17;4.63;;;4.43;;
72109;SDS011;59983;52.010;5.420;2022-11-06T14:11:50;5.38;;;4.97;;
72109;SDS011;59983;52.010;5.420;2022-11-06T14:19:37;4.68;;;4.30;;
72109;SDS011;59983;52.010;5.420;2022-11-06T14:24:35;7.03;;;5.03;;
72109;SDS011;59983;52.010;5.420;2022-11-06T14:27:04;4.75;;;4.55;;
72109;SDS011;59983;52.010;5.420;2022-11-06T14:32:11;6.20;;;5.70;;
72109;SDS011;59983;52.010;5.420;2022-11-06T14:40:36;6.63;;;6.03;;
72109;SDS011;59983;52.010;5.420;2022-11-06T14:43:15;7.95;;;6.10;;
72109;SDS011;59983;52.010;5.420;2022-11-06T14:45:51;7.40;;;5.05;;
72109;SDS011;59983;52.010;5.420;2022-11-06T14:48:29;5.57;;;5.07;;
72109;SDS011;59983;52.010;5.420;2022-11-06T14:51:01;6.22;;;5.63;;
72109;SDS011;59983;52.010;5.420;2022-11-06T14:53:35;7.47;;;5.28;;
72109;SDS011;59983;52.010;5.420;2022-11-06T14:56:10;9.07;;;5.70;;
72109;SDS011;59983;52.010;5.420;2022-11-06T14:58:49;5.95;;;5.43;;
72109;SDS011;59983;52.010;5.420;2022-11-06T15:01:27;6.13;;;5.53;;
72109;SDS011;59983;52.010;5.420;2022-11-06T15:04:14;6.10;;;5.60;;
72109;SDS011;59983;52.010;5.420;2022-11-06T15:06:44;6.00;;;5.53;;
72109;SDS011;59983;52.010;5.420;2022-11-06T15:11:53;6.70;;;6.13;;
72109;SDS011;59983;52.010;5.420;2022-11-06T15:17:02;6.43;;;5.88;;
72109;SDS011;59983;52.010;5.420;2022-11-06T15:19:47;7.40;;;6.13;;
72109;SDS011;59983;52.010;5.420;2022-11-06T15:22:27;6.05;;;5.65;;
72109;SDS011;59983;52.010;5.420;2022-11-06T15:25:20;6.10;;;5.68;;
72109;SDS011;59983;52.010;5.420;2022-11-06T15:30:22;6.65;;;6.03;;
72109;SDS011;59983;52.010;5.420;2022-11-06T15:32:50;6.70;;;5.28;;
72109;SDS011;59983;52.010;5.420;2022-11-06T15:35:23;6.55;;;5.32;;
72109;SDS011;59983;52.010;5.420;2022-11-06T15:37:56;7.55;;;6.05;;
72109;SDS011;59983;52.010;5.420;2022-11-06T15:40:33;9.23;;;6.87;;
72109;SDS011;59983;52.010;5.420;2022-11-06T15:46:04;6.90;;;6.30;;
72109;SDS011;59983;52.010;5.420;2022-11-06T15:48:37;6.60;;;6.03;;
72109;SDS011;59983;52.010;5.420;2022-11-06T15:51:18;6.80;;;6.40;;
72109;SDS011;59983;52.010;5.420;2022-11-06T15:53:46;6.20;;;5.90;;
72109;SDS011;59983;52.010;5.420;2022-11-06T15:56:12;6.50;;;5.82;;
72109;SDS011;59983;52.010;5.420;2022-11-06T15:58:41;6.60;;;6.20;;
72109;SDS011;59983;52.010;5.420;2022-11-06T16:01:09;6.65;;;6.05;;
72109;SDS011;59983;52.010;5.420;2022-11-06T16:03:43;8.13;;;6.03;;
72109;SDS011;59983;52.010;5.420;2022-11-06T16:06:14;7.47;;;6.97;;
72109;SDS011;59983;52.010;5.420;2022-11-06T16:08:41;6.70;;;6.03;;
72109;SDS011;59983;52.010;5.420;2022-11-06T16:11:16;6.60;;;6.20;;
72109;SDS011;59983;52.010;5.420;2022-11-06T16:13:44;5.63;;;5.22;;
72109;SDS011;59983;52.010;5.420;2022-11-06T16:18:59;5.93;;;5.70;;
72109;SDS011;59983;52.010;5.420;2022-11-06T16:21:31;6.38;;;5.75;;
72109;SDS011;59983;52.010;5.420;2022-11-06T16:24:02;6.22;;;5.80;;
72109;SDS011;59983;52.010;5.420;2022-11-06T16:26:37;6.25;;;5.75;;
72109;SDS011;59983;52.010;5.420;2022-11-06T16:29:16;6.82;;;6.18;;
72109;SDS011;59983;52.010;5.420;2022-11-06T16:31:44;6.70;;;6.30;;
72109;SDS011;59983;52.010;5.420;2022-11-06T16:37:02;6.50;;;6.10;;
72109;SDS011;59983;52.010;5.420;2022-11-06T16:39:58;6.15;;;5.75;;
72109;SDS011;59983;52.010;5.420;2022-11-06T16:42:29;8.32;;;7.25;;
72109;SDS011;59983;52.010;5.420;2022-11-06T16:47:26;6.57;;;6.05;;
72109;SDS011;59983;52.010;5.420;2022-11-06T16:49:54;7.65;;;7.15;;
72109;SDS011;59983;52.010;5.420;2022-11-06T16:52:29;6.53;;;6.22;;
72109;SDS011;59983;52.010;5.420;2022-11-06T16:54:58;7.00;;;6.60;;
72109;SDS011;59983;52.010;5.420;2022-11-06T16:57:26;6.50;;;6.20;;
72109;SDS011;59983;52.010;5.420;2022-11-06T17:02:54;5.88;;;5.57;;
72109;SDS011;59983;52.010;5.420;2022-11-06T17:05:25;7.20;;;6.80;;
72109;SDS011;59983;52.010;5.420;2022-11-06T17:08:07;7.00;;;6.70;;
72109;SDS011;59983;52.010;5.420;2022-11-06T17:10:46;7.63;;;6.93;;
72109;SDS011;59983;52.010;5.420;2022-11-06T17:18:27;9.00;;;6.88;;
72109;SDS011;59983;52.010;5.420;2022-11-06T17:21:00;6.55;;;6.20;;
72109;SDS011;59983;52.010;5.420;2022-11-06T17:23:28;6.23;;;5.93;;
72109;SDS011;59983;52.010;5.420;2022-11-06T17:26:29;6.55;;;6.25;;
72109;SDS011;59983;52.010;5.420;2022-11-06T17:28:56;7.15;;;6.55;;
72109;SDS011;59983;52.010;5.420;2022-11-06T17:31:24;6.38;;;5.97;;
72109;SDS011;59983;52.010;5.420;2022-11-06T17:33:52;8.00;;;7.50;;
72109;SDS011;59983;52.010;5.420;2022-11-06T17:36:22;6.77;;;6.47;;
72109;SDS011;59983;52.010;5.420;2022-11-06T17:38:50;7.10;;;6.80;;
72109;SDS011;59983;52.010;5.420;2022-11-06T17:41:18;6.28;;;5.97;;
72109;SDS011;59983;52.010;5.420;2022-11-06T17:44:10;6.78;;;6.18;;
72109;SDS011;59983;52.010;5.420;2022-11-06T17:49:08;7.97;;;7.37;;
72109;SDS011;59983;52.010;5.420;2022-11-06T17:51:43;6.63;;;6.32;;
72109;SDS011;59983;52.010;5.420;2022-11-06T17:54:16;6.78;;;6.47;;